Time;durP1;ratioP1;P1;durP2;ratioP2;P2;SDS_P1;SDS_P2;PMS_P1;PMS_P2;Temp;Humidity;BMP_temperature;BMP_pressure;BME280_temperature;BME280_humidity;BME280_pressure;Samples;Min_cycle;Max_cycle;Signal;HPM_P1;HPM_P2
2022/05/18 00:01:45;;;;;;;4.82;2.10;;;;;;;4.98;71.69;101370.47;5087581;28;20601;-71
2022/05/18 00:04:11;;;;;;;2.78;2.17;;;;;;;4.94;72.02;101371.16;5091853;28;20039;-71
2022/05/18 00:06:37;;;;;;;3.78;2.45;;;;;;;4.89;72.05;101368.28;5087628;28;20444;-71
2022/05/18 00:09:03;;;;;;;4.65;2.00;;;;;;;4.85;72.26;101371.44;5090443;28;20131;-71
2022/05/18 00:11:30;;;;;;;2.88;2.08;;;;;;;4.81;72.51;101372.94;5085399;28;20047;-71
2022/05/18 00:13:57;;;;;;;2.33;2.00;;;;;;;4.73;72.96;101373.25;5086458;28;20514;-71
2022/05/18 00:16:24;;;;;;;2.85;1.80;;;;;;;4.65;72.87;101376.25;5084476;28;20044;-72
2022/05/18 00:18:50;;;;;;;3.15;2.25;;;;;;;4.63;73.21;101380.25;5090545;28;20166;-71
2022/05/18 00:21:16;;;;;;;2.53;1.92;;;;;;;4.58;72.92;101370.03;5084334;28;20036;-72
2022/05/18 00:23:42;;;;;;;3.65;2.17;;;;;;;4.59;73.05;101368.16;5089446;28;20043;-72
2022/05/18 00:26:08;;;;;;;6.93;2.22;;;;;;;4.56;73.24;101374.06;5084819;28;20441;-72
2022/05/18 00:28:34;;;;;;;3.28;2.13;;;;;;;4.52;73.24;101374.50;5083945;28;20085;-71
2022/05/18 00:31:00;;;;;;;5.25;1.98;;;;;;;4.49;73.73;101371.38;5087050;28;20517;-72
2022/05/18 00:33:26;;;;;;;2.28;1.90;;;;;;;4.47;73.79;101370.78;5088364;28;20043;-72
2022/05/18 00:35:52;;;;;;;2.50;1.85;;;;;;;4.41;73.85;101377.09;5086395;28;20064;-72
2022/05/18 00:38:18;;;;;;;2.30;1.67;;;;;;;4.36;74.36;101374.22;5088975;28;20047;-72
2022/05/18 00:40:46;;;;;;;2.50;2.05;;;;;;;4.31;74.45;101371.31;5088567;28;20137;-72
2022/05/18 00:43:34;;;;;;;2.65;2.03;;;;;;;4.29;74.34;101368.00;5088731;28;20039;-72
2022/05/18 00:46:03;;;;;;;3.75;2.20;;;;;;;4.26;74.49;101371.16;5087040;28;20048;-72
2022/05/18 00:48:29;;;;;;;2.60;1.95;;;;;;;4.26;74.15;101380.16;5084062;28;20063;-71
2022/05/18 00:50:56;;;;;;;5.20;2.00;;;;;;;4.20;74.12;101370.19;5084085;28;20032;-71
2022/05/18 00:53:31;;;;;;;3.33;1.98;;;;;;;4.20;74.74;101378.31;5085042;28;20055;-71
2022/05/18 00:56:00;;;;;;;2.85;2.17;;;;;;;4.14;74.57;101382.75;5083704;28;20379;-72
2022/05/18 00:58:37;;;;;;;5.10;2.50;;;;;;;4.10;74.88;101378.81;5090670;28;20089;-72
2022/05/18 01:01:08;;;;;;;3.25;2.50;;;;;;;4.05;75.30;101377.81;5086442;28;20524;-72
2022/05/18 01:03:41;;;;;;;4.00;2.50;;;;;;;4.01;75.30;101387.47;5084509;28;20032;-72
2022/05/18 01:06:14;;;;;;;4.55;2.50;;;;;;;3.99;75.21;101389.53;5088178;28;20051;-72
2022/05/18 01:08:50;;;;;;;4.00;2.47;;;;;;;3.99;75.43;101397.69;5089103;28;20064;-72
2022/05/18 01:11:17;;;;;;;2.95;2.65;;;;;;;3.92;75.35;101384.16;5082808;28;20036;-72
2022/05/18 01:13:42;;;;;;;3.58;2.90;;;;;;;3.88;75.83;101386.47;5086147;28;20035;-72
2022/05/18 01:16:08;;;;;;;3.08;2.30;;;;;;;3.86;75.66;101385.88;5087410;28;20575;-72
2022/05/18 01:18:34;;;;;;;5.25;2.35;;;;;;;3.86;75.45;101385.03;5072568;28;20134;-72
2022/05/18 01:21:00;;;;;;;3.67;2.47;;;;;;;3.82;76.19;101387.38;5084949;28;20085;-73
2022/05/18 01:23:32;;;;;;;3.47;2.53;;;;;;;3.78;76.28;101382.56;5082516;28;20040;-72
2022/05/18 01:26:17;;;;;;;4.75;2.40;;;;;;;3.76;76.48;101380.06;5085465;28;20066;-72
2022/05/18 01:28:56;;;;;;;3.30;2.53;;;;;;;3.74;76.22;101389.50;5086899;28;20037;-71
2022/05/18 01:31:44;;;;;;;3.15;2.30;;;;;;;3.74;76.59;101387.59;5081009;28;20040;-72
2022/05/18 01:34:10;;;;;;;3.17;2.50;;;;;;;3.75;76.68;101386.56;5088471;28;20040;-72
2022/05/18 01:36:36;;;;;;;4.25;2.22;;;;;;;3.76;76.38;101385.50;5089498;28;20100;-72
2022/05/18 01:39:02;;;;;;;3.75;2.28;;;;;;;3.78;76.66;101382.56;5087259;28;20028;-72
2022/05/18 01:41:30;;;;;;;3.20;2.10;;;;;;;3.77;77.13;101395.31;5080798;28;20040;-72
2022/05/18 01:43:59;;;;;;;3.88;2.28;;;;;;;3.77;77.19;101395.31;5068568;28;20097;-72
2022/05/18 01:46:27;;;;;;;4.22;2.45;;;;;;;3.77;76.60;101387.16;5081357;28;20035;-72
2022/05/18 01:48:53;;;;;;;3.35;2.55;;;;;;;3.76;76.72;101398.25;5081375;28;20044;-72
2022/05/18 01:51:33;;;;;;;2.92;2.33;;;;;;;3.77;76.93;101389.06;5085705;28;20084;-72
2022/05/18 01:53:58;;;;;;;2.55;2.30;;;;;;;3.77;77.17;101383.63;5086440;28;20055;-72
2022/05/18 01:56:24;;;;;;;3.15;2.20;;;;;;;3.77;77.10;101386.34;5081560;28;20036;-71
2022/05/18 01:58:50;;;;;;;3.13;2.30;;;;;;;3.76;77.25;101387.38;5088460;28;20036;-71
2022/05/18 02:01:16;;;;;;;3.85;2.22;;;;;;;3.79;77.06;101390.50;5085177;28;20040;-72
2022/05/18 02:03:41;;;;;;;2.83;2.30;;;;;;;3.80;77.17;101392.16;5087819;28;20587;-71
2022/05/18 02:06:07;;;;;;;4.80;2.47;;;;;;;3.78;77.39;101388.84;5085579;28;20071;-71
2022/05/18 02:08:33;;;;;;;2.78;2.25;;;;;;;3.77;77.31;101391.75;5090433;28;20066;-71
2022/05/18 02:10:59;;;;;;;2.58;2.00;;;;;;;3.79;77.53;101386.94;5088710;28;20530;-71
2022/05/18 02:13:24;;;;;;;5.03;3.10;;;;;;;3.79;77.25;101386.94;5082623;28;20040;-71
2022/05/18 02:15:50;;;;;;;3.70;2.42;;;;;;;3.81;77.68;101393.81;5082290;28;20059;-71
2022/05/18 02:18:15;;;;;;;3.47;2.60;;;;;;;3.82;77.67;101381.94;5090004;28;20039;-71
2022/05/18 02:20:41;;;;;;;4.05;2.92;;;;;;;3.86;77.39;101394.03;5089164;28;20486;-71
2022/05/18 02:23:08;;;;;;;4.43;2.60;;;;;;;3.91;77.54;101396.91;5087686;28;20082;-71
2022/05/18 02:25:34;;;;;;;4.70;3.00;;;;;;;3.90;77.67;101397.94;5085927;28;20047;-71
2022/05/18 02:28:00;;;;;;;4.22;3.38;;;;;;;3.90;77.85;101389.81;5090781;28;20388;-71
2022/05/18 02:30:26;;;;;;;3.08;2.78;;;;;;;3.92;77.59;101395.84;5084709;28;20047;-71
2022/05/18 02:32:51;;;;;;;4.93;2.80;;;;;;;3.94;77.69;101404.59;5088542;28;20032;-71
2022/05/18 02:35:17;;;;;;;6.43;3.50;;;;;;;3.96;77.14;101398.94;5083430;28;20064;-71
2022/05/18 02:37:43;;;;;;;4.20;3.00;;;;;;;4.00;77.64;101402.09;5088032;28;20032;-71
2022/05/18 02:40:10;;;;;;;3.67;2.75;;;;;;;4.04;77.16;101406.84;5086414;28;20036;-71
2022/05/18 02:42:36;;;;;;;6.20;2.78;;;;;;;4.07;78.08;101400.16;5088778;28;20490;-71
2022/05/18 02:45:03;;;;;;;4.68;2.97;;;;;;;4.09;77.67;101406.19;5084687;28;20036;-71
2022/05/18 02:47:29;;;;;;;5.15;3.42;;;;;;;4.15;77.23;101402.59;5085190;28;20032;-71
2022/05/18 02:49:54;;;;;;;4.78;3.00;;;;;;;4.22;77.68;101398.78;5082036;28;20406;-71
2022/05/18 02:52:20;;;;;;;4.22;3.00;;;;;;;4.29;78.37;101400.59;5089643;28;20063;-72
2022/05/18 02:57:31;;;;;;;3.70;2.90;;;;;;;4.39;77.60;101401.78;5084021;28;20036;-71
2022/05/18 02:59:56;;;;;;;6.20;3.17;;;;;;;4.44;77.40;101401.94;5087496;28;20039;-71
2022/05/18 03:02:22;;;;;;;3.53;2.45;;;;;;;4.47;77.78;101400.66;5075201;28;20040;-71
2022/05/18 03:04:48;;;;;;;5.13;2.70;;;;;;;4.50;77.74;101401.03;5095002;28;20036;-71
2022/05/18 03:07:13;;;;;;;3.13;2.40;;;;;;;4.56;77.15;101396.63;5086685;28;20039;-71
2022/05/18 03:09:39;;;;;;;4.22;2.60;;;;;;;4.60;77.80;101397.00;5094402;28;20059;-71
2022/05/18 03:12:05;;;;;;;3.20;2.40;;;;;;;4.63;77.96;101402.81;5109663;28;20038;-71
2022/05/18 03:14:31;;;;;;;3.83;2.72;;;;;;;4.66;77.74;101401.53;5077621;28;20137;-71
2022/05/18 03:16:58;;;;;;;2.67;2.30;;;;;;;4.70;77.77;101410.94;5083624;28;20040;-71
2022/05/18 03:19:23;;;;;;;2.78;2.15;;;;;;;4.77;77.33;101409.81;5084126;28;20047;-71
2022/05/18 03:24:33;;;;;;;5.18;2.45;;;;;;;4.88;77.97;101401.97;5075495;28;20078;-71
2022/05/18 03:26:59;;;;;;;3.85;2.25;;;;;;;4.97;77.72;101398.72;5086496;28;20055;-71
2022/05/18 03:29:24;;;;;;;3.28;2.40;;;;;;;5.01;77.56;101402.63;5092017;28;20043;-72
2022/05/18 03:31:50;;;;;;;3.65;2.40;;;;;;;5.09;77.50;101401.53;5089261;28;20051;-71
2022/05/18 03:34:16;;;;;;;3.33;2.08;;;;;;;5.10;77.83;101401.31;5093097;28;20051;-71
2022/05/18 03:36:42;;;;;;;2.53;2.15;;;;;;;5.12;78.31;101399.19;5088603;28;20028;-71
2022/05/18 03:39:08;;;;;;;2.65;2.20;;;;;;;5.15;77.85;101395.16;5092750;28;20032;-71
2022/05/18 03:41:36;;;;;;;2.85;2.15;;;;;;;5.21;77.46;101398.91;5088667;28;20032;-71
2022/05/18 03:44:06;;;;;;;4.30;2.30;;;;;;;5.24;77.94;101401.16;5090280;28;20040;-72
2022/05/18 03:46:32;;;;;;;2.33;1.90;;;;;;;5.23;77.90;101397.59;5091379;28;20047;-71
2022/05/18 03:48:59;;;;;;;3.60;2.53;;;;;;;5.26;77.57;101402.59;5090996;28;20040;-72
2022/05/18 03:51:25;;;;;;;2.85;2.17;;;;;;;5.30;77.29;101392.91;5089125;28;20410;-71
2022/05/18 03:53:51;;;;;;;2.75;1.83;;;;;;;5.32;78.06;101388.06;5090729;28;20040;-72
2022/05/18 03:56:16;;;;;;;5.63;2.33;;;;;;;5.37;77.53;101395.53;5088980;28;20050;-72
2022/05/18 03:58:42;;;;;;;2.75;1.92;;;;;;;5.41;77.26;101392.16;5085954;28;20043;-72
2022/05/18 04:01:09;;;;;;;2.35;2.03;;;;;;;5.49;77.76;101393.72;5072048;28;20059;-72
2022/05/18 04:03:40;;;;;;;2.70;1.95;;;;;;;5.59;77.45;101401.34;5081862;28;20105;-72
2022/05/18 04:06:06;;;;;;;2.33;1.80;;;;;;;5.71;77.24;101396.75;5074995;28;20542;-72
2022/05/18 04:08:32;;;;;;;1.92;1.77;;;;;;;5.81;76.31;101393.50;5091518;28;20066;-72
2022/05/18 04:10:58;;;;;;;2.00;1.70;;;;;;;5.91;76.36;101404.72;5075605;28;20071;-72
2022/05/18 04:13:26;;;;;;;3.22;1.98;;;;;;;6.07;76.08;101397.75;5075472;28;20037;-72
2022/05/18 04:15:53;;;;;;;2.97;1.60;;;;;;;6.23;75.10;101392.47;5075178;28;20068;-72
2022/05/18 04:18:20;;;;;;;2.30;1.67;;;;;;;6.26;74.67;101396.63;5071574;28;20510;-72
2022/05/18 04:20:45;;;;;;;1.92;1.70;;;;;;;6.30;73.82;101387.75;5070698;28;20040;-72
2022/05/18 04:23:12;;;;;;;1.63;1.52;;;;;;;6.34;73.75;101388.09;5074814;28;20469;-72
2022/05/18 04:25:39;;;;;;;2.95;1.83;;;;;;;6.34;73.72;101386.22;5073289;28;20575;-72
2022/05/18 04:28:05;;;;;;;3.63;1.90;;;;;;;6.38;73.40;101389.28;5077824;28;20043;-71
2022/05/18 04:30:31;;;;;;;1.95;1.63;;;;;;;6.43;72.78;101385.88;5091564;28;20035;-71
2022/05/18 04:32:58;;;;;;;1.77;1.55;;;;;;;6.45;72.97;101390.03;5090396;28;20430;-72
2022/05/18 04:35:25;;;;;;;2.10;1.73;;;;;;;6.47;72.69;101384.34;5082250;28;20048;-73
2022/05/18 04:37:51;;;;;;;2.22;1.65;;;;;;;6.52;72.80;101390.72;5075323;28;20036;-73
2022/05/18 04:40:16;;;;;;;3.53;1.40;;;;;;;6.55;71.44;101387.53;5072744;28;20043;-72
2022/05/18 04:42:42;;;;;;;2.33;1.40;;;;;;;6.57;72.47;101387.28;5088680;28;20051;-72
2022/05/18 04:45:11;;;;;;;1.77;1.60;;;;;;;6.58;71.64;101387.06;5084850;28;20487;-72
2022/05/18 04:47:36;;;;;;;1.83;1.63;;;;;;;6.60;72.10;101390.41;5073078;28;21074;-72
2022/05/18 04:50:03;;;;;;;2.22;1.55;;;;;;;6.63;71.87;101379.00;5080549;28;20564;-72
2022/05/18 04:52:28;;;;;;;2.97;1.50;;;;;;;6.64;71.34;101388.84;5081078;28;20068;-73
2022/05/18 04:54:54;;;;;;;2.25;1.60;;;;;;;6.67;71.39;101393.00;5084648;28;20525;-72
2022/05/18 04:57:20;;;;;;;1.55;1.45;;;;;;;6.68;71.64;101386.47;5074534;28;20135;-72
2022/05/18 04:59:46;;;;;;;1.73;1.58;;;;;;;6.71;71.24;101388.72;5075241;28;20052;-71
2022/05/18 05:02:11;;;;;;;1.40;1.30;;;;;;;6.72;71.40;101395.84;5065830;28;20032;-72
2022/05/18 05:04:37;;;;;;;2.00;1.73;;;;;;;6.74;70.65;101399.16;5070069;28;20041;-71
2022/05/18 05:07:04;;;;;;;1.88;1.55;;;;;;;6.80;70.66;101395.50;5086650;28;20430;-73
2022/05/18 05:09:30;;;;;;;2.25;1.70;;;;;;;6.83;70.69;101384.09;5087269;28;20040;-71
2022/05/18 05:11:55;;;;;;;1.98;1.60;;;;;;;6.79;70.92;101382.94;5082045;28;20039;-72
2022/05/18 05:14:21;;;;;;;2.05;1.60;;;;;;;6.82;70.56;101390.63;5071303;28;20094;-73
2022/05/18 05:16:47;;;;;;;1.58;1.48;;;;;;;6.85;70.10;101384.69;5071026;28;20067;-73
2022/05/18 05:19:14;;;;;;;2.55;1.42;;;;;;;6.89;69.84;101383.13;5079037;28;20556;-73
2022/05/18 05:21:42;;;;;;;1.60;1.33;;;;;;;6.89;69.65;101391.31;5075389;28;20120;-72
2022/05/18 05:24:12;;;;;;;3.70;1.30;;;;;;;6.97;69.10;101381.13;5084878;28;20044;-73
2022/05/18 05:26:38;;;;;;;1.70;1.25;;;;;;;7.00;68.66;101386.94;5083456;28;20519;-73
2022/05/18 05:29:04;;;;;;;1.70;1.20;;;;;;;7.04;68.82;101381.81;5076192;28;20044;-72
2022/05/18 05:31:30;;;;;;;1.80;1.50;;;;;;;7.03;68.67;101382.91;5084997;28;20449;-73
2022/05/18 05:33:56;;;;;;;1.85;1.30;;;;;;;7.04;68.27;101376.38;5076199;28;20032;-72
2022/05/18 05:36:22;;;;;;;2.10;1.40;;;;;;;7.06;67.74;101374.22;5072673;28;20105;-72
2022/05/18 05:38:48;;;;;;;1.38;1.27;;;;;;;7.07;67.97;101371.25;5081286;28;20048;-72
2022/05/18 05:41:14;;;;;;;1.40;1.30;;;;;;;7.07;68.03;101363.06;5077537;28;20127;-73
2022/05/18 05:43:41;;;;;;;1.50;1.40;;;;;;;7.08;67.32;101372.91;5090422;28;20032;-72
2022/05/18 05:46:13;;;;;;;1.48;1.38;;;;;;;7.09;67.43;101368.28;5085041;28;20043;-73
2022/05/18 05:48:40;;;;;;;1.70;1.45;;;;;;;7.13;66.64;101364.03;5084232;28;20044;-73
2022/05/18 05:51:06;;;;;;;1.65;1.40;;;;;;;7.17;66.41;101362.47;5073257;28;20036;-72
2022/05/18 05:53:32;;;;;;;2.28;1.75;;;;;;;7.18;67.04;101362.22;5070238;28;20491;-71
2022/05/18 05:55:58;;;;;;;1.83;1.20;;;;;;;7.24;66.66;101368.59;5078829;28;20093;-72
2022/05/18 05:58:25;;;;;;;1.20;1.10;;;;;;;7.31;66.01;101372.06;5084007;28;20036;-72
2022/05/18 06:00:51;;;;;;;1.63;1.30;;;;;;;7.34;66.12;101366.09;5077809;28;20072;-72
2022/05/18 06:03:18;;;;;;;1.25;1.15;;;;;;;7.43;65.76;101369.25;5075631;28;20495;-72
2022/05/18 06:05:44;;;;;;;1.58;1.23;;;;;;;7.54;65.09;101368.41;5071551;28;20087;-72
2022/05/18 06:08:10;;;;;;;3.70;1.27;;;;;;;7.65;65.62;101359.34;5088196;28;20036;-72
2022/05/18 06:10:35;;;;;;;1.30;1.00;;;;;;;7.76;65.17;101365.81;5075499;28;20513;-72
2022/05/18 06:13:08;;;;;;;1.67;1.30;;;;;;;7.91;65.11;101365.28;5089189;28;20032;-72
2022/05/18 06:15:34;;;;;;;1.88;1.15;;;;;;;8.05;64.61;101359.25;5082400;28;20510;-72
2022/05/18 06:17:59;;;;;;;2.55;1.70;;;;;;;8.22;64.42;101362.00;5070579;28;20048;-72
2022/05/18 06:20:25;;;;;;;1.50;1.40;;;;;;;8.38;63.36;101360.38;5065856;28;20037;-72
2022/05/18 06:22:50;;;;;;;2.85;1.30;;;;;;;8.48;62.66;101360.53;5074610;28;20563;-72
2022/05/18 06:25:18;;;;;;;1.35;1.25;;;;;;;8.57;62.14;101360.94;5070968;28;20123;-72
2022/05/18 06:27:44;;;;;;;1.85;1.20;;;;;;;8.75;61.45;101355.19;5085553;28;20063;-72
2022/05/18 06:30:11;;;;;;;1.38;1.27;;;;;;;8.97;61.53;101352.50;5085142;28;20088;-72
2022/05/18 06:32:37;;;;;;;1.88;1.20;;;;;;;9.08;61.62;101348.81;5092646;28;20070;-72
2022/05/18 06:35:03;;;;;;;2.47;1.40;;;;;;;9.22;60.94;101349.28;5094782;28;20083;-71
2022/05/18 06:37:29;;;;;;;1.13;1.00;;;;;;;9.30;59.81;101357.84;5090494;28;20032;-71
2022/05/18 06:39:55;;;;;;;1.83;1.20;;;;;;;9.38;59.48;101353.03;5083575;28;20039;-71
2022/05/18 06:42:21;;;;;;;2.75;1.20;;;;;;;9.54;58.46;101357.56;5077123;28;20051;-73
2022/05/18 06:44:50;;;;;;;1.50;1.40;;;;;;;9.61;59.02;101356.31;5088289;28;20126;-71
2022/05/18 06:47:16;;;;;;;2.53;1.48;;;;;;;9.75;59.00;101344.94;5076353;28;20526;-71
2022/05/18 06:49:42;;;;;;;1.90;1.60;;;;;;;9.88;58.44;101352.72;5072959;28;20545;-71
2022/05/18 06:52:09;;;;;;;1.90;1.58;;;;;;;9.93;58.27;101353.63;5073599;28;20506;-71
2022/05/18 06:54:36;;;;;;;4.38;1.80;;;;;;;9.87;58.18;101356.56;5080926;28;20040;-71
2022/05/18 06:57:02;;;;;;;2.65;2.05;;;;;;;9.83;57.88;101342.56;5094130;28;20119;-71
2022/05/18 06:59:28;;;;;;;2.90;1.98;;;;;;;9.79;57.91;101352.38;5075870;28;20585;-72
2022/05/18 07:01:53;;;;;;;2.40;1.90;;;;;;;9.81;58.10;101360.34;5073651;28;20127;-71
2022/05/18 07:04:19;;;;;;;2.03;1.55;;;;;;;10.01;57.48;101359.72;5073911;28;20529;-71
2022/05/18 07:06:45;;;;;;;1.88;1.40;;;;;;;10.08;57.26;101350.22;5075043;28;20123;-71
2022/05/18 07:09:15;;;;;;;1.67;1.58;;;;;;;10.13;57.03;101343.94;5073805;28;20531;-71
2022/05/18 07:11:42;;;;;;;1.65;1.55;;;;;;;10.28;56.83;101346.84;5072425;28;20032;-71
2022/05/18 07:14:08;;;;;;;2.45;1.85;;;;;;;10.42;56.37;101337.09;5055597;28;20044;-71
2022/05/18 07:16:35;;;;;;;2.47;1.50;;;;;;;10.55;56.33;101342.09;5077414;28;20043;-71
2022/05/18 07:19:00;;;;;;;2.33;1.80;;;;;;;10.70;55.90;101337.81;5073844;28;20048;-71
2022/05/18 07:21:27;;;;;;;1.70;1.60;;;;;;;10.76;55.45;101331.25;5072379;28;20552;-71
2022/05/18 07:23:53;;;;;;;3.75;1.90;;;;;;;10.78;55.18;101329.09;5073583;28;20045;-71
2022/05/18 07:26:21;;;;;;;2.30;1.65;;;;;;;10.80;54.92;101335.13;5075902;28;20450;-71
2022/05/18 07:28:47;;;;;;;1.73;1.52;;;;;;;10.92;54.61;101340.41;5093740;28;20436;-71
2022/05/18 07:31:13;;;;;;;3.63;1.35;;;;;;;10.93;53.97;101331.06;5092526;28;20040;-70
2022/05/18 07:33:38;;;;;;;1.23;1.10;;;;;;;10.97;53.66;101324.78;5089338;28;20043;-70
2022/05/18 07:36:05;;;;;;;1.83;1.50;;;;;;;11.00;53.63;101327.00;5084612;28;20529;-71
2022/05/18 07:38:32;;;;;;;2.13;1.50;;;;;;;11.06;54.01;101325.91;5092660;28;20032;-71
2022/05/18 07:40:58;;;;;;;1.23;1.10;;;;;;;11.06;53.05;101320.44;5092481;28;20051;-71
2022/05/18 07:43:24;;;;;;;2.42;1.52;;;;;;;11.05;52.88;101328.94;5093771;28;20050;-71
2022/05/18 07:45:52;;;;;;;1.40;1.30;;;;;;;11.20;53.46;101326.25;5092099;28;20044;-71
2022/05/18 07:48:18;;;;;;;1.50;1.23;;;;;;;11.32;52.75;101324.13;5083603;28;20052;-71
2022/05/18 07:50:45;;;;;;;1.77;1.10;;;;;;;11.58;52.93;101325.00;5093260;28;20040;-71
2022/05/18 07:53:11;;;;;;;1.80;1.40;;;;;;;11.92;51.55;101321.81;5093101;28;20047;-71
2022/05/18 07:55:37;;;;;;;6.57;1.50;;;;;;;12.26;51.07;101317.41;5093104;28;20043;-72
2022/05/18 07:58:04;;;;;;;1.65;1.10;;;;;;;12.44;50.45;101317.94;5093372;28;20044;-72
2022/05/18 08:00:30;;;;;;;1.83;1.38;;;;;;;12.67;50.49;101322.91;5075239;28;20131;-72
2022/05/18 08:02:56;;;;;;;5.20;1.70;;;;;;;12.82;50.16;101320.06;5093097;28;20131;-72
2022/05/18 08:05:21;;;;;;;1.45;1.20;;;;;;;12.95;49.88;101313.97;5093413;28;20621;-72
2022/05/18 08:07:47;;;;;;;1.30;0.95;;;;;;;13.06;49.84;101311.22;5077866;28;20044;-70
2022/05/18 08:15:48;;;;;;;1.63;1.27;;;;;;;12.91;49.86;101310.16;5077527;28;20070;-72
2022/05/18 08:18:15;;;;;;;4.20;1.55;;;;;;;12.91;50.13;101306.56;5092855;28;20036;-72
2022/05/18 08:20:42;;;;;;;1.40;1.30;;;;;;;12.81;49.76;101306.59;5092934;28;20123;-72
2022/05/18 08:23:07;;;;;;;1.80;1.40;;;;;;;12.71;49.24;101307.47;5092728;28;20130;-71
2022/05/18 08:25:34;;;;;;;2.35;1.40;;;;;;;12.57;49.25;101295.38;5082660;28;20131;-71
2022/05/18 08:28:00;;;;;;;1.30;1.20;;;;;;;12.47;49.79;101296.19;5091185;28;20487;-70
2022/05/18 08:30:30;;;;;;;3.20;1.48;;;;;;;12.36;49.63;101294.59;5092296;28;20071;-71
2022/05/18 08:32:59;;;;;;;1.23;1.13;;;;;;;12.33;50.74;101287.72;5092435;28;20418;-72
2022/05/18 08:35:25;;;;;;;1.08;0.90;;;;;;;12.50;50.20;101281.06;5091443;28;20513;-72
2022/05/18 08:37:51;;;;;;;3.90;1.27;;;;;;;12.55;49.47;101284.63;5074397;28;20054;-71
2022/05/18 08:40:29;;;;;;;3.13;1.25;;;;;;;12.59;49.69;101276.63;5074434;28;20080;-71
2022/05/18 08:42:56;;;;;;;1.30;1.20;;;;;;;12.64;49.24;101269.19;5090321;28;20040;-71
2022/05/18 08:45:23;;;;;;;1.55;1.30;;;;;;;12.73;49.34;101274.94;5084892;28;20036;-70
2022/05/18 08:48:30;;;;;;;2.70;1.20;;;;;;;12.77;48.80;101265.03;5075475;28;20822;-71
2022/05/18 08:51:02;;;;;;;1.65;1.20;;;;;;;12.74;47.86;101265.59;5073294;28;20059;-71
2022/05/18 08:53:40;;;;;;;1.60;1.10;;;;;;;12.64;47.58;101271.09;5054073;28;20511;-71
2022/05/18 08:56:08;;;;;;;2.08;1.40;;;;;;;12.47;48.51;101262.34;5071012;28;20127;-71
2022/05/18 08:58:51;;;;;;;3.42;1.23;;;;;;;12.34;47.32;101261.00;5070626;28;20060;-71
2022/05/18 09:01:21;;;;;;;4.90;2.38;;;;;;;12.26;47.72;101262.38;5071656;28;20059;-71
2022/05/18 09:03:50;;;;;;;1.60;1.50;;;;;;;12.24;48.22;101252.75;5070354;28;20039;-71
2022/05/18 09:06:28;;;;;;;2.65;1.92;;;;;;;12.21;48.12;101248.63;5077967;28;20043;-72
2022/05/18 09:11:54;;;;;;;3.88;2.22;;;;;;;12.14;47.96;101248.06;5070457;28;20040;-72
2022/05/18 09:14:21;;;;;;;2.28;1.67;;;;;;;12.12;47.47;101241.22;5078568;28;20032;-72
2022/05/18 09:16:49;;;;;;;1.73;1.27;;;;;;;12.06;47.04;101234.91;5075266;28;20037;-75
2022/05/18 09:19:44;;;;;;;22.67;12.20;;;;;;;12.22;50.03;101233.78;5080169;28;20036;-72
2022/05/18 09:22:28;;;;;;;4.05;2.80;;;;;;;12.49;48.21;101227.09;5070709;27;20036;-71
2022/05/18 09:25:04;;;;;;;1.70;1.10;;;;;;;12.41;48.12;101219.44;5071460;28;20055;-71
2022/05/18 09:27:33;;;;;;;2.22;1.42;;;;;;;12.27;48.39;101222.75;5080663;28;20127;-71
2022/05/18 09:30:10;;;;;;;1.17;0.93;;;;;;;12.11;48.53;101214.81;5075938;28;20123;-71
2022/05/18 09:32:48;;;;;;;2.35;1.42;;;;;;;11.94;48.54;101220.59;5076125;28;20044;-71
2022/05/18 09:35:39;;;;;;;1.90;1.10;;;;;;;11.74;47.10;101205.72;5077254;28;20041;-71
2022/05/18 09:38:10;;;;;;;2.35;1.00;;;;;;;11.51;47.58;101200.78;5083948;28;20042;-72
2022/05/18 09:40:41;;;;;;;1.88;1.30;;;;;;;11.31;46.93;101211.75;5080228;28;20040;-71
2022/05/18 09:43:17;;;;;;;2.95;1.10;;;;;;;11.18;48.26;101208.41;5072453;28;20056;-72
2022/05/18 09:45:45;;;;;;;3.95;1.27;;;;;;;11.08;47.26;101197.38;5068613;28;20378;-72
2022/05/18 09:48:34;;;;;;;1.65;0.98;;;;;;;10.92;47.45;101198.44;5071272;28;20086;-71
2022/05/18 09:51:00;;;;;;;3.50;1.38;;;;;;;10.85;47.64;101193.22;5074496;28;20036;-72
2022/05/18 09:53:26;;;;;;;1.80;1.17;;;;;;;10.76;47.68;101196.72;5077668;28;20048;-72
2022/05/18 09:55:52;;;;;;;2.22;1.20;;;;;;;10.70;47.37;101176.69;5086884;28;20047;-72
2022/05/18 09:58:24;;;;;;;5.28;1.40;;;;;;;10.61;47.50;101191.22;5069957;28;20051;-72
2022/05/18 10:07:26;;;;;;;3.83;1.15;;;;;;;10.57;47.87;101188.16;5069216;28;20051;-72
2022/05/18 10:09:41;;;;;;;3.05;0.82;;;;;;;10.60;47.43;101184.91;5079631;28;20433;-71
2022/05/18 10:12:11;;;;;;;2.67;1.38;;;;;;;10.64;47.44;101174.19;5077787;28;20441;-71
2022/05/18 10:14:38;;;;;;;1.90;1.15;;;;;;;10.67;47.46;101162.69;5070841;28;20036;-71
2022/05/18 10:17:10;;;;;;;4.63;1.38;;;;;;;10.68;49.14;101175.31;5069870;28;20079;-71
2022/05/18 10:19:43;;;;;;;3.47;1.23;;;;;;;10.67;48.78;101179.97;5069203;28;20040;-71
2022/05/18 10:22:12;;;;;;;3.33;1.20;;;;;;;10.67;49.75;101171.75;5072821;28;20036;-71
2022/05/18 10:24:41;;;;;;;4.57;1.33;;;;;;;10.65;50.02;101168.44;5069410;28;20044;-71
2022/05/18 10:27:13;;;;;;;2.05;1.02;;;;;;;10.63;51.21;101161.56;5069475;28;20079;-72
2022/05/18 10:29:39;;;;;;;4.38;1.50;;;;;;;10.64;50.82;101152.25;5070602;28;20036;-71
2022/05/18 10:32:06;;;;;;;3.53;1.48;;;;;;;10.55;50.40;101158.22;5088116;28;20490;-71
2022/05/18 10:34:50;;;;;;;4.95;1.48;;;;;;;10.50;49.99;101146.41;5089507;28;20522;-71
2022/05/18 10:37:31;;;;;;;1.77;1.30;;;;;;;10.47;51.16;101147.78;5090908;28;20040;-72
2022/05/18 10:40:00;;;;;;;2.90;1.50;;;;;;;10.45;51.71;101155.47;5086107;28;20040;-71
2022/05/18 10:42:31;;;;;;;3.70;1.42;;;;;;;10.46;52.48;101150.81;5089724;28;20051;-71
2022/05/18 10:45:01;;;;;;;3.88;1.60;;;;;;;10.47;51.80;101145.03;5081327;28;20115;-71
2022/05/18 10:47:35;;;;;;;1.60;1.48;;;;;;;10.48;52.73;101160.41;5083444;28;20042;-71
2022/05/18 10:50:23;;;;;;;2.13;1.35;;;;;;;10.50;52.78;101152.72;5071982;28;20121;-72
2022/05/18 10:52:50;;;;;;;1.80;1.27;;;;;;;10.51;53.39;101148.91;5089098;28;20068;-72
2022/05/18 10:55:22;;;;;;;2.15;1.30;;;;;;;10.50;53.36;101155.47;5090503;28;20459;-71
2022/05/18 10:58:07;;;;;;;7.82;1.40;;;;;;;10.46;52.88;101159.84;5090589;28;20040;-72
2022/05/18 11:01:04;;;;;;;4.72;1.50;;;;;;;10.41;53.44;101154.34;5076959;28;20037;-71
2022/05/18 11:03:36;;;;;;;3.20;1.30;;;;;;;10.39;53.34;101151.03;5082951;28;20075;-71
2022/05/18 11:06:11;;;;;;;8.38;1.40;;;;;;;10.42;53.49;101141.47;5089159;28;20044;-71
2022/05/18 11:08:37;;;;;;;1.30;1.17;;;;;;;10.38;53.17;101152.13;5072575;28;20035;-71
2022/05/18 11:11:19;;;;;;;4.50;1.67;;;;;;;10.33;54.22;101154.84;5089213;28;20107;-71
2022/05/18 11:13:54;;;;;;;2.90;1.30;;;;;;;10.31;54.02;101131.53;5091447;28;20032;-70
2022/05/18 11:16:26;;;;;;;4.20;1.50;;;;;;;10.27;54.72;101137.56;5093348;28;20043;-72
2022/05/18 11:18:59;;;;;;;2.08;1.33;;;;;;;10.31;54.54;101142.50;5094093;28;20530;-70
2022/05/18 11:21:33;;;;;;;3.13;1.50;;;;;;;10.37;54.27;101145.00;5079976;28;20040;-70
2022/05/18 11:24:19;;;;;;;2.78;1.60;;;;;;;10.46;54.44;101131.59;5055623;28;20060;-71
2022/05/18 11:26:56;;;;;;;2.00;1.50;;;;;;;10.56;53.97;101140.69;5081683;28;20529;-71
2022/05/18 11:29:41;;;;;;;4.10;1.88;;;;;;;10.58;53.93;101138.47;5092709;28;20036;-71
2022/05/18 11:32:31;;;;;;;2.53;1.73;;;;;;;10.53;53.91;101141.22;5077491;28;20032;-71
2022/05/18 11:35:05;;;;;;;2.67;1.67;;;;;;;10.52;54.66;101131.34;5073584;28;20040;-71
2022/05/18 11:37:45;;;;;;;7.35;1.80;;;;;;;10.49;54.40;101142.03;5073666;28;20044;-70
2022/05/18 11:40:36;;;;;;;3.03;1.42;;;;;;;10.42;55.14;101136.81;5072339;28;20033;-71
2022/05/18 11:43:28;;;;;;;2.42;1.40;;;;;;;10.37;54.99;101114.81;5072178;28;20029;-71
2022/05/18 11:46:14;;;;;;;4.18;1.40;;;;;;;10.38;55.34;101137.59;5071146;28;20048;-71
2022/05/18 11:48:54;;;;;;;3.05;2.10;;;;;;;10.39;56.03;101120.03;5073035;28;20131;-72
2022/05/18 11:51:47;;;;;;;2.40;1.52;;;;;;;10.45;56.83;101121.72;5073111;28;20064;-72
2022/05/18 11:54:41;;;;;;;4.72;1.60;;;;;;;10.48;56.31;101108.28;5072896;28;20052;-72
2022/05/18 11:57:14;;;;;;;2.42;2.05;;;;;;;10.47;56.05;101114.88;5073093;28;20037;-72
2022/05/18 11:59:45;;;;;;;2.72;1.50;;;;;;;10.51;56.52;101120.63;5072970;28;20518;-72